Time,TemperatureF,DewpointF,PressureIn,WindDirection,WindDirectionDegrees,WindSpeedMPH,WindSpeedGustMPH,Humidity,HourlyPrecipIn,Conditions,Clouds,dailyrainin,SoftwareType,DateUTC
2013-02-02 00:06:00,53.3,38.0,30.25,NE,37,1.0,2.0,56,0.00,,,0.00,weatherlink.com 1.10,2013-02-02 05:06:00,
2013-02-02 00:21:00,52.7,39.0,30.24,NE,37,0.0,2.0,60,0.00,,,0.00,weatherlink.com 1.10,2013-02-02 05:21:00,
2013-02-02 00:36:00,51.7,41.0,30.24,NE,37,0.0,0.0,67,0.00,,,0.00,weatherlink.com 1.10,2013-02-02 05:36:00,
2013-02-02 00:51:00,50.7,43.0,30.24,NE,37,0.0,0.0,74,0.00,,,0.00,weatherlink.com 1.10,2013-02-02 05:51:00,
2013-02-02 01:06:00,49.9,42.0,30.24,NE,37,0.0,0.0,74,0.00,,,0.00,weatherlink.com 1.10,2013-02-02 06:06:00,
2013-02-02 01:21:00,49.3,43.0,30.23,NE,37,0.0,1.0,78,0.00,,,0.00,weatherlink.com 1.10,2013-02-02 06:21:00,
2013-02-02 01:36:00,48.6,42.0,30.23,NE,37,0.0,0.0,78,0.00,,,0.00,weatherlink.com 1.10,2013-02-02 06:36:00,
2013-02-02 01:51:00,48.3,41.0,30.23,NNW,336,2.0,4.0,75,0.00,,,0.00,weatherlink.com 1.10,2013-02-02 06:51:00,
2013-02-02 02:06:00,48.8,40.0,30.23,NNE,13,1.0,5.0,71,0.00,,,0.00,weatherlink.com 1.10,2013-02-02 07:06:00,
2013-02-02 02:21:00,49.1,38.0,30.23,ENE,60,1.0,4.0,67,0.00,,,0.00,weatherlink.com 1.10,2013-02-02 07:21:00,
2013-02-02 02:36:00,49.1,38.0,30.23,NNE,33,2.0,4.0,66,0.00,,,0.00,weatherlink.com 1.10,2013-02-02 07:36:00,
2013-02-02 02:51:00,49.0,38.0,30.23,NNE,26,3.0,5.0,65,0.00,,,0.00,weatherlink.com 1.10,2013-02-02 07:51:00,
2013-02-02 03:06:00,49.2,38.0,30.23,NNE,27,4.0,5.0,66,0.00,,,0.00,weatherlink.com 1.10,2013-02-02 08:06:00,
2013-02-02 03:21:00,49.3,39.0,30.23,NNE,30,3.0,7.0,68,0.00,,,0.00,weatherlink.com 1.10,2013-02-02 08:21:00,
2013-02-02 03:36:00,49.5,40.0,30.23,NNE,22,4.0,8.0,69,0.00,,,0.00,weatherlink.com 1.10,2013-02-02 08:36:00,
2013-02-02 03:51:00,49.7,40.0,30.23,NNE,31,3.0,7.0,70,0.00,,,0.00,weatherlink.com 1.10,2013-02-02 08:51:00,
2013-02-02 04:06:00,49.6,41.0,30.23,ENE,76,3.0,7.0,71,0.00,,,0.00,weatherlink.com 1.10,2013-02-02 09:06:00,
2013-02-02 04:21:00,49.6,41.0,30.23,NE,53,2.0,8.0,71,0.00,,,0.00,weatherlink.com 1.10,2013-02-02 09:21:00,
2013-02-02 04:36:00,49.8,41.0,30.23,North,5,5.0,11.0,72,0.00,,,0.00,weatherlink.com 1.10,2013-02-02 09:36:00,
2013-02-02 04:51:00,49.8,41.0,30.23,NNE,22,4.0,8.0,71,0.00,,,0.00,weatherlink.com 1.10,2013-02-02 09:51:00,
2013-02-02 05:06:00,49.6,41.0,30.22,ENE,62,5.0,9.0,72,0.00,,,0.00,weatherlink.com 1.10,2013-02-02 10:06:00,
2013-02-02 05:21:00,49.3,41.0,30.23,ENE,59,5.0,8.0,72,0.00,,,0.00,weatherlink.com 1.10,2013-02-02 10:21:00,
2013-02-02 05:36:00,49.0,41.0,30.23,ENE,63,4.0,7.0,73,0.00,,,0.00,weatherlink.com 1.10,2013-02-02 10:36:00,
2013-02-02 05:51:00,48.8,40.0,30.23,ENE,74,7.0,8.0,73,0.00,,,0.00,weatherlink.com 1.10,2013-02-02 10:51:00,
2013-02-02 06:06:00,48.8,40.0,30.23,NE,52,5.0,12.0,73,0.00,,,0.00,weatherlink.com 1.10,2013-02-02 11:06:00,
2013-02-02 06:21:00,48.9,41.0,30.24,ENE,61,5.0,11.0,73,0.00,,,0.00,weatherlink.com 1.10,2013-02-02 11:21:00,
2013-02-02 06:36:00,48.8,40.0,30.24,ENE,67,5.0,11.0,73,0.00,,,0.00,weatherlink.com 1.10,2013-02-02 11:36:00,
2013-02-02 06:51:00,48.8,40.0,30.24,ENE,68,7.0,9.0,73,0.00,,,0.00,weatherlink.com 1.10,2013-02-02 11:51:00,
2013-02-02 07:06:00,48.6,41.0,30.25,NE,49,1.0,8.0,74,0.00,,,0.00,weatherlink.com 1.10,2013-02-02 12:06:00,
2013-02-02 07:21:00,48.5,41.0,30.25,ENE,67,1.0,8.0,74,0.00,,,0.00,weatherlink.com 1.10,2013-02-02 12:21:00,
2013-02-02 07:36:00,48.7,41.0,30.25,ENE,69,5.0,11.0,74,0.00,,,0.00,weatherlink.com 1.10,2013-02-02 12:36:00,
2013-02-02 07:51:00,49.1,41.0,30.26,ENE,74,7.0,10.0,73,0.00,,,0.00,weatherlink.com 1.10,2013-02-02 12:51:00,
2013-02-02 08:06:00,50.1,41.0,30.25,ENE,72,4.0,13.0,71,0.00,,,0.00,weatherlink.com 1.10,2013-02-02 13:06:00,
2013-02-02 08:21:00,51.5,42.0,30.25,NE,48,6.0,10.0,70,0.00,,,0.00,weatherlink.com 1.10,2013-02-02 13:21:00,
2013-02-02 08:36:00,53.0,43.0,30.25,ENE,65,8.0,11.0,68,0.00,,,0.00,weatherlink.com 1.10,2013-02-02 13:36:00,
2013-02-02 08:51:00,54.5,44.0,30.25,NE,55,6.0,10.0,68,0.00,,,0.00,weatherlink.com 1.10,2013-02-02 13:51:00,
2013-02-02 09:06:00,56.0,43.0,30.26,NE,55,7.0,9.0,63,0.00,,,0.00,weatherlink.com 1.10,2013-02-02 14:06:00,
2013-02-02 09:21:00,57.4,44.0,30.26,ENE,63,5.0,11.0,62,0.00,,,0.00,weatherlink.com 1.10,2013-02-02 14:21:00,
2013-02-02 09:37:00,59.0,45.0,30.26,East,90,9.0,9.0,60,0.00,,,0.00,weatherlink.com 1.10,2013-02-02 14:37:00,
2013-02-02 09:52:00,59.7,45.0,30.26,ENE,78,3.0,9.0,58,0.00,,,0.00,weatherlink.com 1.10,2013-02-02 14:52:00,
2013-02-02 10:07:00,60.9,44.0,30.26,East,82,3.0,10.0,55,0.00,,,0.00,weatherlink.com 1.10,2013-02-02 15:07:00,
2013-02-02 10:22:00,62.4,43.0,30.25,East,86,3.0,10.0,49,0.00,,,0.00,weatherlink.com 1.10,2013-02-02 15:22:00,
2013-02-02 10:37:00,63.3,43.0,30.25,East,91,5.0,11.0,47,0.00,,,0.00,weatherlink.com 1.10,2013-02-02 15:37:00,
2013-02-02 10:52:00,65.3,43.0,30.24,East,85,8.0,10.0,45,0.00,,,0.00,weatherlink.com 1.10,2013-02-02 15:52:00,
2013-02-02 11:07:00,65.9,43.0,30.23,NE,34,6.0,12.0,44,0.00,,,0.00,weatherlink.com 1.10,2013-02-02 16:07:00,
2013-02-02 11:22:00,66.9,45.0,30.23,East,99,3.0,10.0,45,0.00,,,0.00,weatherlink.com 1.10,2013-02-02 16:22:00,
2013-02-02 11:37:00,68.2,46.0,30.22,ENE,78,2.0,8.0,45,0.00,,,0.00,weatherlink.com 1.10,2013-02-02 16:37:00,
2013-02-02 11:52:00,69.7,47.0,30.21,ENE,61,1.0,10.0,45,0.00,,,0.00,weatherlink.com 1.10,2013-02-02 16:52:00,
2013-02-02 12:07:00,69.9,46.0,30.20,East,92,0.0,12.0,43,0.00,,,0.00,weatherlink.com 1.10,2013-02-02 17:07:00,
2013-02-02 12:22:00,71.3,48.0,30.19,ENE,69,4.0,10.0,44,0.00,,,0.00,weatherlink.com 1.10,2013-02-02 17:22:00,
2013-02-02 12:37:00,72.8,50.0,30.19,ESE,104,2.0,11.0,44,0.00,,,0.00,weatherlink.com 1.10,2013-02-02 17:37:00,
2013-02-02 12:52:00,73.6,51.0,30.18,ESE,105,4.0,8.0,45,0.00,,,0.00,weatherlink.com 1.10,2013-02-02 17:52:00,
2013-02-02 13:07:00,73.7,50.0,30.17,East,89,2.0,8.0,43,0.00,,,0.00,weatherlink.com 1.10,2013-02-02 18:07:00,
2013-02-02 13:22:00,74.7,51.0,30.16,SE,142,1.0,6.0,43,0.00,,,0.00,weatherlink.com 1.10,2013-02-02 18:22:00,
2013-02-02 13:37:00,74.0,49.0,30.15,ENE,74,1.0,8.0,41,0.00,,,0.00,weatherlink.com 1.10,2013-02-02 18:37:00,
2013-02-02 13:52:00,74.3,50.0,30.15,ENE,78,4.0,6.0,43,0.00,,,0.00,weatherlink.com 1.10,2013-02-02 18:52:00,
2013-02-02 14:07:00,75.3,51.0,30.14,ESE,111,2.0,3.0,42,0.00,,,0.00,weatherlink.com 1.10,2013-02-02 19:07:00,
2013-02-02 14:23:00,76.4,50.0,30.14,SSW,193,3.0,7.0,39,0.00,,,0.00,weatherlink.com 1.10,2013-02-02 19:23:00,
2013-02-02 14:38:00,76.8,49.0,30.13,SSE,160,3.0,8.0,37,0.00,,,0.00,weatherlink.com 1.10,2013-02-02 19:38:00,
2013-02-02 14:53:00,75.1,50.0,30.12,SSW,192,1.0,6.0,42,0.00,,,0.00,weatherlink.com 1.10,2013-02-02 19:53:00,
2013-02-02 15:08:00,75.4,51.0,30.12,SSE,153,1.0,6.0,42,0.00,,,0.00,weatherlink.com 1.10,2013-02-02 20:08:00,
2013-02-02 15:23:00,75.3,50.0,30.12,East,85,3.0,7.0,41,0.00,,,0.00,weatherlink.com 1.10,2013-02-02 20:23:00,
2013-02-02 15:38:00,76.0,48.0,30.11,South,191,3.0,5.0,37,0.00,,,0.00,weatherlink.com 1.10,2013-02-02 20:38:00,
2013-02-02 15:53:00,76.3,49.0,30.11,SSE,149,0.0,6.0,39,0.00,,,0.00,weatherlink.com 1.10,2013-02-02 20:53:00,
2013-02-02 16:08:00,77.5,49.0,30.11,SE,140,0.0,4.0,37,0.00,,,0.00,weatherlink.com 1.10,2013-02-02 21:08:00,
2013-02-02 16:23:00,77.6,49.0,30.11,SE,138,0.0,2.0,37,0.00,,,0.00,weatherlink.com 1.10,2013-02-02 21:23:00,
2013-02-02 16:38:00,75.6,47.0,30.11,East,83,3.0,5.0,37,0.00,,,0.00,weatherlink.com 1.10,2013-02-02 21:38:00,
2013-02-02 16:53:00,75.3,49.0,30.11,SE,138,0.0,3.0,40,0.00,,,0.00,weatherlink.com 1.10,2013-02-02 21:53:00,
2013-02-02 17:08:00,75.1,50.0,30.10,East,99,0.0,5.0,41,0.00,,,0.00,weatherlink.com 1.10,2013-02-02 22:08:00,
2013-02-02 17:23:00,74.7,49.0,30.11,East,99,0.0,1.0,41,0.00,,,0.00,weatherlink.com 1.10,2013-02-02 22:23:00,
2013-02-02 17:38:00,73.4,49.0,30.11,East,99,0.0,0.0,43,0.00,,,0.00,weatherlink.com 1.10,2013-02-02 22:38:00,
2013-02-02 17:53:00,72.6,51.0,30.11,East,99,0.0,0.0,46,0.00,,,0.00,weatherlink.com 1.10,2013-02-02 22:53:00,
2013-02-02 18:08:00,71.0,55.0,30.11,East,99,0.0,0.0,58,0.00,,,0.00,weatherlink.com 1.10,2013-02-02 23:08:00,
2013-02-02 18:23:00,67.6,49.0,30.11,ENE,65,0.0,3.0,52,0.00,,,0.00,weatherlink.com 1.10,2013-02-02 23:23:00,
2013-02-02 18:38:00,66.6,53.0,30.11,WNW,294,1.0,4.0,61,0.00,,,0.00,weatherlink.com 1.10,2013-02-02 23:38:00,
2013-02-02 18:53:00,66.6,49.0,30.12,West,275,3.0,5.0,54,0.00,,,0.00,weatherlink.com 1.10,2013-02-02 23:53:00,
2013-02-02 19:08:00,66.3,49.0,30.12,WNW,301,1.0,4.0,54,0.00,,,0.00,weatherlink.com 1.10,2013-02-03 00:08:00,
2013-02-02 19:23:00,65.7,49.0,30.13,NW,309,1.0,2.0,55,0.00,,,0.00,weatherlink.com 1.10,2013-02-03 00:23:00,
2013-02-02 19:38:00,64.9,49.0,30.13,NW,309,0.0,0.0,57,0.00,,,0.00,weatherlink.com 1.10,2013-02-03 00:38:00,
2013-02-02 19:53:00,64.0,49.0,30.13,NW,309,0.0,3.0,59,0.00,,,0.00,weatherlink.com 1.10,2013-02-03 00:53:00,
2013-02-02 20:08:00,63.2,50.0,30.14,NW,309,0.0,2.0,62,0.00,,,0.00,weatherlink.com 1.10,2013-02-03 01:08:00,
2013-02-02 20:23:00,62.2,53.0,30.14,NW,309,0.0,1.0,71,0.00,,,0.00,weatherlink.com 1.10,2013-02-03 01:23:00,
2013-02-02 20:38:00,61.1,53.0,30.15,NW,309,0.0,0.0,74,0.00,,,0.00,weatherlink.com 1.10,2013-02-03 01:38:00,
2013-02-02 20:53:00,60.0,51.0,30.15,NW,309,0.0,0.0,73,0.00,,,0.00,weatherlink.com 1.10,2013-02-03 01:53:00,
2013-02-02 21:08:00,59.6,52.0,30.15,NW,309,0.0,0.0,77,0.00,,,0.00,weatherlink.com 1.10,2013-02-03 02:08:00,
2013-02-02 21:23:00,58.6,51.0,30.15,NW,309,0.0,0.0,77,0.00,,,0.00,weatherlink.com 1.10,2013-02-03 02:23:00,
2013-02-02 21:38:00,58.0,52.0,30.15,NW,309,0.0,0.0,81,0.00,,,0.00,weatherlink.com 1.10,2013-02-03 02:38:00,
2013-02-02 21:53:00,57.3,53.0,30.15,NW,309,0.0,0.0,85,0.00,,,0.00,weatherlink.com 1.10,2013-02-03 02:53:00,
2013-02-02 22:08:00,56.7,53.0,30.14,NW,309,0.0,1.0,86,0.00,,,0.00,weatherlink.com 1.10,2013-02-03 03:08:00,
2013-02-02 22:23:00,56.4,53.0,30.14,NW,309,0.0,0.0,87,0.00,,,0.00,weatherlink.com 1.10,2013-02-03 03:23:00,
2013-02-02 22:38:00,56.2,53.0,30.14,NW,309,0.0,0.0,88,0.00,,,0.00,weatherlink.com 1.10,2013-02-03 03:38:00,
2013-02-02 22:53:00,55.7,52.0,30.13,NW,309,0.0,0.0,88,0.00,,,0.00,weatherlink.com 1.10,2013-02-03 03:53:00,
2013-02-02 23:08:00,55.4,52.0,30.13,NW,309,0.0,0.0,89,0.00,,,0.00,weatherlink.com 1.10,2013-02-03 04:08:00,
2013-02-02 23:23:00,55.3,53.0,30.13,NW,309,0.0,2.0,90,0.00,,,0.00,weatherlink.com 1.10,2013-02-03 04:23:00,
2013-02-02 23:38:00,55.4,52.0,30.13,NW,310,0.0,2.0,87,0.00,,,0.00,weatherlink.com 1.10,2013-02-03 04:38:00,
2013-02-02 23:53:00,55.9,51.0,30.13,NNW,330,0.0,3.0,83,0.00,,,0.00,weatherlink.com 1.10,2013-02-03 04:53:00,